Time;durP1;ratioP1;P1;durP2;ratioP2;P2;SDS_P1;SDS_P2;PMS_P1;PMS_P2;Temp;Humidity;BMP_temperature;BMP_pressure;BME280_temperature;BME280_humidity;BME280_pressure;Samples;Min_cycle;Max_cycle;Signal;HPM_P1;HPM_P2
2022/09/09 00:00:41;;;;;;;1.55;0.10;;;;;;;6.55;68.88;100458.47;4989694;28;20050;-69
2022/09/09 00:03:14;;;;;;;0.10;0.10;;;;;;;6.53;69.15;100472.28;5009563;28;20054;-69
2022/09/09 00:05:49;;;;;;;0.05;0.05;;;;;;;6.48;69.25;100473.00;4975530;28;20061;-69
2022/09/09 00:08:20;;;;;;;0.10;0.10;;;;;;;6.53;68.95;100470.41;5008886;28;20942;-68
2022/09/09 00:10:56;;;;;;;0.10;0.10;;;;;;;6.57;69.00;100472.66;5011923;28;20512;-69
2022/09/09 00:13:29;;;;;;;0.10;0.10;;;;;;;6.61;68.78;100476.56;4988464;28;20141;-69
2022/09/09 00:16:00;;;;;;;0.10;0.10;;;;;;;6.60;68.90;100469.47;5006320;28;20605;-69
2022/09/09 00:18:35;;;;;;;0.10;0.10;;;;;;;6.63;68.74;100478.00;4992954;28;20044;-69
2022/09/09 00:21:07;;;;;;;0.00;0.00;;;;;;;6.65;68.63;100472.34;4990285;28;20064;-70
2022/09/09 00:23:43;;;;;;;0.10;0.10;;;;;;;6.63;68.68;100469.00;5009070;28;20116;-70
2022/09/09 00:26:15;;;;;;;0.20;0.10;;;;;;;6.61;68.74;100471.97;4989087;28;20050;-70
2022/09/09 00:28:49;;;;;;;0.10;0.10;;;;;;;6.60;68.80;100474.91;5006977;28;20125;-69
2022/09/09 00:31:19;;;;;;;0.10;0.10;;;;;;;6.59;69.00;100476.81;5004547;28;20072;-71
2022/09/09 00:33:49;;;;;;;0.10;0.10;;;;;;;6.62;68.85;100478.22;4988435;28;20053;-71
2022/09/09 00:36:21;;;;;;;0.10;0.10;;;;;;;6.62;68.79;100475.50;4987643;28;20073;-70
2022/09/09 00:38:51;;;;;;;0.10;0.10;;;;;;;6.62;68.94;100480.94;4954912;28;20046;-70
2022/09/09 00:41:21;;;;;;;0.10;0.10;;;;;;;6.61;68.93;100485.56;4970540;28;20153;-72
2022/09/09 00:43:57;;;;;;;0.10;0.10;;;;;;;6.62;69.01;100484.50;5007096;28;20152;-70
2022/09/09 00:46:48;;;;;;;0.00;0.00;;;;;;;6.66;69.14;100488.41;4989698;28;20481;-70
2022/09/09 00:49:27;;;;;;;0.10;0.10;;;;;;;6.65;68.88;100480.50;5009062;28;20549;-70
2022/09/09 00:52:04;;;;;;;0.20;0.10;;;;;;;6.67;68.77;100487.34;4973186;28;20046;-69
2022/09/09 00:54:45;;;;;;;0.30;0.10;;;;;;;6.66;68.86;100485.69;4973254;28;20038;-70
2022/09/09 00:57:23;;;;;;;0.00;0.00;;;;;;;6.66;68.83;100487.59;5005999;28;20052;-70
2022/09/09 00:59:52;;;;;;;0.10;0.10;;;;;;;6.62;68.76;100486.38;4989643;28;20054;-70
2022/09/09 01:02:28;;;;;;;0.10;0.10;;;;;;;6.61;68.86;100493.72;4986466;28;20041;-70
2022/09/09 01:05:02;;;;;;;0.10;0.10;;;;;;;6.59;68.98;100492.28;4986526;28;20104;-70
2022/09/09 01:07:28;;;;;;;0.10;0.10;;;;;;;6.60;68.87;100489.34;4987668;28;20049;-70
2022/09/09 01:09:57;;;;;;;0.10;0.10;;;;;;;6.55;68.93;100489.19;5005071;28;20148;-69
2022/09/09 01:12:28;;;;;;;0.00;0.00;;;;;;;6.57;69.01;100494.41;5007621;28;20493;-70
2022/09/09 01:15:08;;;;;;;0.10;0.10;;;;;;;6.59;68.96;100506.69;4988853;28;20061;-70
2022/09/09 01:17:41;;;;;;;0.10;0.10;;;;;;;6.59;69.01;100497.72;4990560;28;20132;-70
2022/09/09 01:20:17;;;;;;;0.00;0.00;;;;;;;6.54;69.06;100495.69;4991327;28;20053;-68
2022/09/09 01:23:15;;;;;;;0.10;0.10;;;;;;;6.57;69.00;100508.81;4990100;28;20128;-69
2022/09/09 01:26:23;;;;;;;0.00;0.00;;;;;;;6.56;69.45;100511.75;4989353;28;20049;-70
2022/09/09 01:28:54;;;;;;;0.10;0.10;;;;;;;6.53;69.24;100518.47;4928988;29;20047;-70
2022/09/09 01:31:31;;;;;;;0.10;0.10;;;;;;;6.50;69.48;100514.34;4929810;29;20141;-70
2022/09/09 01:33:57;;;;;;;0.00;0.00;;;;;;;6.49;69.49;100514.56;4943951;29;20063;-70
2022/09/09 01:36:31;;;;;;;0.10;0.10;;;;;;;6.41;69.59;100509.47;4927133;29;20075;-70
2022/09/09 01:38:58;;;;;;;0.13;0.10;;;;;;;6.48;69.75;100521.91;4929995;29;20519;-68
2022/09/09 01:41:25;;;;;;;0.10;0.10;;;;;;;6.49;69.69;100520.84;4927015;29;20053;-70
2022/09/09 01:44:00;;;;;;;0.10;0.10;;;;;;;6.50;69.73;100527.09;4930405;29;20094;-70
2022/09/09 01:46:29;;;;;;;0.10;0.10;;;;;;;6.50;69.68;100530.66;4947256;29;20051;-70
2022/09/09 01:48:57;;;;;;;0.10;0.10;;;;;;;6.50;69.65;100527.09;4927178;29;20118;-69
2022/09/09 01:51:23;;;;;;;0.10;0.10;;;;;;;6.48;69.95;100526.50;4927451;29;20130;-69
2022/09/09 01:53:50;;;;;;;0.10;0.10;;;;;;;6.45;69.98;100532.41;4930165;29;20094;-69
2022/09/09 01:56:35;;;;;;;0.10;0.10;;;;;;;6.41;70.03;100529.28;4927029;29;20133;-70
2022/09/09 01:59:16;;;;;;;0.20;0.10;;;;;;;6.41;70.23;100529.28;4928180;28;20041;-71
2022/09/09 02:01:55;;;;;;;0.00;0.00;;;;;;;6.41;70.17;100532.00;4987701;28;20583;-69
2022/09/09 02:04:35;;;;;;;0.10;0.10;;;;;;;6.40;70.16;100530.34;5005131;28;20053;-70
2022/09/09 02:07:10;;;;;;;0.10;0.10;;;;;;;6.40;70.33;100535.78;4972633;28;20512;-70
2022/09/09 02:09:41;;;;;;;0.10;0.10;;;;;;;6.41;70.18;100539.34;4955447;28;20144;-71
2022/09/09 02:12:13;;;;;;;0.10;0.10;;;;;;;6.31;70.19;100527.13;5005698;28;20049;-70
2022/09/09 02:14:50;;;;;;;0.05;0.05;;;;;;;6.37;70.20;100541.69;4988600;28;20081;-71
2022/09/09 02:17:21;;;;;;;0.10;0.10;;;;;;;6.36;70.26;100537.31;4974609;28;20116;-70
2022/09/09 02:20:06;;;;;;;0.10;0.10;;;;;;;6.37;70.31;100541.69;4986058;28;20521;-69
2022/09/09 02:22:49;;;;;;;0.10;0.10;;;;;;;6.33;70.25;100535.06;4986779;28;20100;-70
2022/09/09 02:25:19;;;;;;;0.10;0.10;;;;;;;6.33;70.34;100540.50;4974326;28;20068;-70
2022/09/09 02:27:50;;;;;;;0.10;0.10;;;;;;;6.28;70.37;100543.88;4988251;28;20049;-69
2022/09/09 02:30:17;;;;;;;0.00;0.00;;;;;;;6.27;70.47;100549.53;5003674;28;20065;-69
2022/09/09 02:32:52;;;;;;;0.00;0.00;;;;;;;6.22;70.46;100548.34;5003000;28;20038;-70
2022/09/09 02:35:24;;;;;;;0.00;0.00;;;;;;;6.22;70.50;100555.66;4970435;28;20053;-70
2022/09/09 02:37:53;;;;;;;0.45;0.20;;;;;;;6.20;70.53;100557.75;4987963;28;20038;-71
2022/09/09 02:40:20;;;;;;;0.10;0.10;;;;;;;6.09;70.44;100552.06;4986193;28;20068;-69
2022/09/09 02:42:54;;;;;;;0.10;0.10;;;;;;;6.10;70.82;100556.44;4986431;28;20064;-70
2022/09/09 02:45:25;;;;;;;0.35;0.10;;;;;;;6.10;70.80;100566.44;4985729;28;20120;-70
2022/09/09 02:48:00;;;;;;;0.55;0.15;;;;;;;6.06;70.68;100566.06;4988152;28;20536;-70
2022/09/09 02:50:33;;;;;;;0.00;0.00;;;;;;;5.99;70.93;100575.28;4970582;28;20064;-70
2022/09/09 02:53:10;;;;;;;0.10;0.10;;;;;;;5.95;70.88;100572.22;4987072;28;20053;-69
2022/09/09 02:55:46;;;;;;;0.10;0.10;;;;;;;5.99;71.37;100580.72;4987231;28;20037;-71
2022/09/09 02:58:16;;;;;;;0.10;0.10;;;;;;;6.00;71.01;100587.81;4975726;28;20596;-70
2022/09/09 03:00:49;;;;;;;0.10;0.10;;;;;;;5.96;71.07;100582.84;4990945;28;20501;-70
2022/09/09 03:03:16;;;;;;;0.10;0.10;;;;;;;5.90;71.32;100594.59;4990501;28;20050;-71
2022/09/09 03:05:42;;;;;;;0.10;0.10;;;;;;;5.90;71.61;100591.06;4956916;28;20053;-70
2022/09/09 03:08:09;;;;;;;0.10;0.10;;;;;;;5.85;71.76;100596.31;4990244;28;20509;-70
2022/09/09 03:10:36;;;;;;;0.10;0.10;;;;;;;5.75;71.97;100594.13;5008539;28;20073;-69
2022/09/09 03:13:05;;;;;;;0.10;0.10;;;;;;;5.61;72.41;100588.81;4992433;28;20144;-70
2022/09/09 03:15:35;;;;;;;0.10;0.10;;;;;;;5.52;72.95;100596.41;4991392;28;20389;-69
2022/09/09 03:18:02;;;;;;;0.00;0.00;;;;;;;5.39;73.41;100596.50;4978701;28;20052;-69
2022/09/09 03:20:29;;;;;;;0.10;0.10;;;;;;;5.25;73.73;100584.94;4992870;28;20076;-71
2022/09/09 03:22:57;;;;;;;0.60;0.10;;;;;;;5.24;74.40;100597.66;4993370;28;20137;-69
2022/09/09 03:25:23;;;;;;;0.00;0.00;;;;;;;5.21;74.42;100603.53;5008235;28;20056;-69
2022/09/09 03:27:54;;;;;;;;;;;;;;;5.24;74.56;100603.09;4974220;28;20308;-70
2022/09/09 03:30:20;;;;;;;0.10;0.10;;;;;;;5.19;74.67;100594.78;4973133;28;20192;-69
2022/09/09 03:32:48;;;;;;;0.10;0.10;;;;;;;5.27;74.72;100609.13;4989991;28;20050;-69
2022/09/09 03:35:15;;;;;;;0.10;0.10;;;;;;;5.22;74.71;100604.34;4990886;28;20073;-69
2022/09/09 03:37:41;;;;;;;0.32;0.10;;;;;;;5.22;74.90;100609.78;4989398;28;20053;-70
2022/09/09 03:40:10;;;;;;;0.10;0.10;;;;;;;5.22;74.94;100615.19;4989708;28;20049;-69
2022/09/09 03:42:36;;;;;;;0.00;0.00;;;;;;;5.19;75.40;100613.78;4973820;28;20453;-70
2022/09/09 03:45:04;;;;;;;0.10;0.10;;;;;;;5.23;75.30;100616.88;4991884;28;20062;-70
2022/09/09 03:47:30;;;;;;;0.10;0.10;;;;;;;5.30;75.59;100617.66;4972915;28;20050;-71
2022/09/09 03:50:08;;;;;;;0.00;0.00;;;;;;;5.34;75.10;100623.47;4991402;28;20707;-69
2022/09/09 03:52:36;;;;;;;0.10;0.10;;;;;;;5.35;75.38;100631.38;4992754;28;20042;-70
2022/09/09 03:55:03;;;;;;;0.10;0.10;;;;;;;5.41;75.20;100631.56;4989888;28;20424;-70
2022/09/09 03:57:29;;;;;;;0.45;0.10;;;;;;;5.41;75.25;100623.44;5009393;28;20045;-70
2022/09/09 03:59:56;;;;;;;0.10;0.10;;;;;;;5.47;75.09;100628.81;4988224;28;20240;-70
2022/09/09 04:02:22;;;;;;;0.10;0.10;;;;;;;5.52;75.09;100628.13;4988590;28;20472;-69
2022/09/09 04:04:48;;;;;;;0.10;0.10;;;;;;;5.54;74.79;100632.28;5007844;28;20060;-70
2022/09/09 04:07:17;;;;;;;0.10;0.10;;;;;;;5.58;74.68;100632.69;4992092;28;20100;-71
2022/09/09 04:09:43;;;;;;;;;;;;;;;5.64;74.74;100636.41;4993638;28;20547;-71
2022/09/09 04:12:13;;;;;;;0.10;0.10;;;;;;;5.68;74.51;100626.75;4975800;28;19936;-71
2022/09/09 04:14:39;;;;;;;0.10;0.10;;;;;;;5.76;74.32;100631.06;4990722;28;20107;-69
2022/09/09 04:17:06;;;;;;;0.20;0.20;;;;;;;5.83;73.88;100634.53;4991053;28;20145;-70
2022/09/09 04:19:33;;;;;;;0.10;0.10;;;;;;;5.92;73.66;100635.09;5006837;28;20084;-70
2022/09/09 04:21:59;;;;;;;0.10;0.10;;;;;;;6.02;73.47;100632.72;5010119;28;20057;-70
2022/09/09 04:24:28;;;;;;;0.10;0.10;;;;;;;6.13;73.06;100647.44;5009087;28;20041;-70
2022/09/09 04:26:56;;;;;;;0.10;0.10;;;;;;;6.21;72.55;100644.44;4990617;28;20083;-70
2022/09/09 04:29:22;;;;;;;0.10;0.10;;;;;;;6.30;72.22;100636.84;4991812;28;20057;-70
2022/09/09 04:31:48;;;;;;;0.10;0.10;;;;;;;6.43;71.86;100640.47;4991353;28;20054;-70
2022/09/09 04:34:14;;;;;;;0.20;0.20;;;;;;;6.52;71.66;100639.94;5007173;28;20073;-70
2022/09/09 04:36:40;;;;;;;0.10;0.10;;;;;;;6.63;71.14;100641.03;4990538;28;20050;-69
2022/09/09 04:39:06;;;;;;;0.10;0.10;;;;;;;6.67;70.70;100634.09;5006179;28;20038;-70
2022/09/09 04:41:35;;;;;;;0.10;0.10;;;;;;;6.72;70.36;100641.56;4990963;28;20038;-69
2022/09/09 04:44:03;;;;;;;0.10;0.10;;;;;;;6.79;70.22;100649.63;4990719;28;20093;-71
2022/09/09 04:46:29;;;;;;;0.10;0.10;;;;;;;6.89;69.89;100651.81;4974467;28;20064;-69
2022/09/09 04:48:56;;;;;;;0.10;0.10;;;;;;;6.93;69.64;100647.56;4973330;28;20112;-69
2022/09/09 04:51:28;;;;;;;0.10;0.10;;;;;;;6.99;69.39;100656.69;4989372;28;20045;-70
2022/09/09 04:53:55;;;;;;;0.20;0.20;;;;;;;7.11;68.98;100652.13;4988417;28;20042;-70
2022/09/09 04:56:21;;;;;;;0.30;0.20;;;;;;;7.16;68.60;100651.44;4972203;28;20050;-70
2022/09/09 04:58:53;;;;;;;0.10;0.10;;;;;;;7.23;68.20;100653.00;4971697;28;20058;-70
2022/09/09 05:01:24;;;;;;;0.10;0.10;;;;;;;7.31;67.88;100659.19;4993111;28;20048;-70
2022/09/09 05:03:53;;;;;;;0.10;0.10;;;;;;;7.34;67.71;100661.47;4996518;28;20468;-70
2022/09/09 05:06:22;;;;;;;0.38;0.22;;;;;;;7.31;67.57;100649.13;4988118;28;20048;-69
2022/09/09 05:08:52;;;;;;;0.20;0.20;;;;;;;7.36;66.87;100649.25;4988232;28;20056;-70
2022/09/09 05:11:25;;;;;;;0.13;0.13;;;;;;;7.55;66.70;100664.69;4973379;28;20045;-69
2022/09/09 05:13:58;;;;;;;0.10;0.10;;;;;;;7.58;66.47;100666.94;4976288;28;20078;-70
2022/09/09 05:16:24;;;;;;;0.10;0.10;;;;;;;7.64;66.18;100668.72;4990128;28;20547;-70
2022/09/09 05:18:51;;;;;;;0.15;0.15;;;;;;;7.70;66.05;100670.53;5004412;28;20057;-70
2022/09/09 05:21:19;;;;;;;0.20;0.20;;;;;;;7.77;65.85;100673.13;4975901;28;20129;-70
2022/09/09 05:23:46;;;;;;;0.10;0.10;;;;;;;7.84;65.35;100676.56;4984707;28;20057;-69
2022/09/09 05:26:15;;;;;;;0.20;0.20;;;;;;;7.89;65.03;100678.59;4955949;28;20521;-70
2022/09/09 05:28:42;;;;;;;0.28;0.20;;;;;;;7.99;64.70;100681.56;4991230;28;20111;-70
2022/09/09 05:31:13;;;;;;;0.20;0.20;;;;;;;8.02;64.16;100683.81;4973707;28;20057;-69
2022/09/09 05:33:42;;;;;;;0.30;0.20;;;;;;;8.09;63.94;100679.06;5007902;28;20337;-69
2022/09/09 05:36:12;;;;;;;0.10;0.10;;;;;;;8.11;63.63;100676.13;5009852;28;20540;-70
2022/09/09 05:38:40;;;;;;;0.10;0.10;;;;;;;8.27;62.93;100680.00;4991222;28;20062;-70
2022/09/09 05:41:07;;;;;;;0.75;0.20;;;;;;;8.42;62.58;100675.97;4991766;28;20104;-70
2022/09/09 05:43:35;;;;;;;0.20;0.20;;;;;;;8.67;61.38;100688.53;4972445;28;20065;-70
2022/09/09 05:46:04;;;;;;;0.20;0.20;;;;;;;8.75;60.52;100664.44;5006157;28;20046;-69
2022/09/09 05:48:34;;;;;;;0.10;0.10;;;;;;;8.83;60.18;100660.50;4989046;28;20469;-70
2022/09/09 05:51:21;;;;;;;0.20;0.20;;;;;;;8.88;59.37;100651.59;4990155;28;20067;-71
2022/09/09 05:53:48;;;;;;;0.10;0.10;;;;;;;9.21;59.24;100677.31;4989491;28;20468;-70
2022/09/09 05:56:17;;;;;;;0.10;0.10;;;;;;;9.35;58.60;100684.13;4977692;28;20048;-69
2022/09/09 05:58:44;;;;;;;0.10;0.10;;;;;;;9.52;57.74;100694.25;5008026;28;20056;-69
2022/09/09 06:01:13;;;;;;;0.10;0.10;;;;;;;9.61;57.63;100684.59;5009195;28;20049;-70
2022/09/09 06:03:44;;;;;;;0.20;0.20;;;;;;;9.66;57.12;100692.03;5019690;28;20390;-70
2022/09/09 06:06:13;;;;;;;0.10;0.10;;;;;;;9.80;56.72;100695.28;4990398;28;20077;-71
2022/09/09 06:08:44;;;;;;;0.10;0.10;;;;;;;9.86;56.24;100688.81;4973533;28;20049;-70
2022/09/09 06:11:13;;;;;;;0.20;0.20;;;;;;;9.81;55.94;100683.28;4997259;28;20530;-70
2022/09/09 06:13:40;;;;;;;0.32;0.20;;;;;;;9.78;55.79;100675.59;4641569;28;10000438;-70
2022/09/09 06:16:08;;;;;;;0.45;0.20;;;;;;;9.94;55.58;100695.78;4941523;28;20618;-70
2022/09/09 06:18:35;;;;;;;0.10;0.10;;;;;;;9.98;55.03;100693.38;4980706;28;20056;-70
2022/09/09 06:21:06;;;;;;;0.10;0.10;;;;;;;9.73;54.86;100703.63;4982846;28;20045;-70
2022/09/09 06:23:36;;;;;;;0.13;0.13;;;;;;;9.53;55.75;100697.84;4978097;28;20553;-70
2022/09/09 06:26:05;;;;;;;0.10;0.10;;;;;;;9.70;54.88;100704.13;4981545;28;20586;-70
2022/09/09 06:28:34;;;;;;;0.10;0.10;;;;;;;9.79;53.89;100704.56;4983949;28;20072;-70
2022/09/09 06:31:01;;;;;;;0.10;0.10;;;;;;;9.29;54.69;100674.22;4989555;28;20044;-70
2022/09/09 06:33:31;;;;;;;0.10;0.10;;;;;;;9.55;54.13;100703.88;4992401;28;20054;-70
2022/09/09 06:35:57;;;;;;;0.20;0.20;;;;;;;9.60;53.97;100709.41;5012283;28;20049;-70
2022/09/09 06:38:25;;;;;;;0.10;0.10;;;;;;;9.93;52.92;100703.16;5009866;28;20187;-71
2022/09/09 06:40:54;;;;;;;0.47;0.22;;;;;;;10.34;51.59;100705.69;4985901;28;20042;-70
2022/09/09 06:43:21;;;;;;;0.10;0.10;;;;;;;10.63;50.75;100715.69;4988820;28;20065;-70
2022/09/09 06:45:54;;;;;;;0.10;0.10;;;;;;;10.46;50.79;100710.25;4991368;28;20156;-70
2022/09/09 06:48:21;;;;;;;0.10;0.10;;;;;;;10.20;51.54;100710.66;4995427;28;20388;-70
2022/09/09 06:50:49;;;;;;;0.10;0.10;;;;;;;10.18;52.15;100712.81;5003114;28;20099;-71
2022/09/09 06:53:18;;;;;;;0.20;0.20;;;;;;;10.36;51.74;100713.63;4993495;28;20409;-70
2022/09/09 06:55:47;;;;;;;0.20;0.20;;;;;;;10.47;50.84;100712.72;4988886;28;20076;-71
2022/09/09 06:58:17;;;;;;;0.30;0.30;;;;;;;10.54;50.50;100712.53;5004194;28;20828;-70
2022/09/09 07:00:44;;;;;;;1.15;0.40;;;;;;;10.97;49.84;100721.03;5008792;28;20041;-70
2022/09/09 07:03:10;;;;;;;0.30;0.30;;;;;;;11.23;48.98;100724.06;4974865;28;20058;-70
2022/09/09 07:05:36;;;;;;;0.20;0.20;;;;;;;11.63;47.72;100717.38;4966446;28;20043;-70
2022/09/09 07:08:06;;;;;;;0.20;0.20;;;;;;;12.20;46.20;100728.00;4996254;28;20050;-70
2022/09/09 07:10:34;;;;;;;0.20;0.20;;;;;;;12.29;44.95;100717.38;4975636;28;20478;-70
2022/09/09 07:13:02;;;;;;;0.10;0.10;;;;;;;12.34;44.21;100717.41;4992202;28;20060;-70
2022/09/09 07:15:28;;;;;;;0.20;0.20;;;;;;;12.22;44.33;100717.59;5002433;28;20120;-70
2022/09/09 07:17:54;;;;;;;0.30;0.30;;;;;;;12.32;44.12;100728.63;4991691;28;20768;-70
2022/09/09 07:20:20;;;;;;;0.30;0.30;;;;;;;12.72;43.54;100729.16;4991233;28;20050;-70
2022/09/09 07:22:47;;;;;;;0.20;0.20;;;;;;;13.24;42.27;100737.59;5015948;28;20049;-70
2022/09/09 07:25:14;;;;;;;0.20;0.20;;;;;;;13.26;42.09;100729.91;4993017;28;20056;-71
2022/09/09 07:27:40;;;;;;;0.10;0.10;;;;;;;12.88;42.57;100738.28;4974793;28;20405;-70
2022/09/09 07:30:16;;;;;;;0.27;0.27;;;;;;;12.41;42.92;100745.44;4995785;28;20050;-71
2022/09/09 07:32:42;;;;;;;0.20;0.20;;;;;;;12.26;43.45;100742.59;4996668;28;20145;-70
2022/09/09 07:35:12;;;;;;;0.20;0.20;;;;;;;12.04;43.63;100735.28;4973556;28;20532;-70
2022/09/09 07:37:45;;;;;;;0.20;0.20;;;;;;;11.76;43.93;100748.16;4962736;28;20212;-71
2022/09/09 07:40:21;;;;;;;0.20;0.20;;;;;;;11.88;43.54;100745.25;4975950;28;20512;-70
2022/09/09 07:42:47;;;;;;;0.30;0.30;;;;;;;12.75;42.32;100752.47;4995041;28;20544;-70
2022/09/09 07:45:15;;;;;;;0.30;0.30;;;;;;;13.73;40.39;100760.25;4955550;28;20061;-70
2022/09/09 07:47:42;;;;;;;0.30;0.30;;;;;;;14.50;39.49;100751.16;4972563;28;20654;-70
2022/09/09 07:50:09;;;;;;;0.30;0.30;;;;;;;15.39;37.58;100758.03;4956544;28;20050;-70
2022/09/09 07:52:35;;;;;;;0.20;0.20;;;;;;;15.18;37.26;100762.81;4974620;28;20046;-69
2022/09/09 07:55:05;;;;;;;0.38;0.30;;;;;;;14.28;37.64;100759.72;4979094;28;20755;-69
2022/09/09 07:57:32;;;;;;;0.20;0.20;;;;;;;13.73;37.86;100768.50;4976642;28;20077;-69
2022/09/09 07:59:58;;;;;;;0.30;0.30;;;;;;;13.56;38.18;100761.31;4973092;28;20587;-69
2022/09/09 08:02:29;;;;;;;0.40;0.40;;;;;;;14.57;36.80;100759.97;4974538;28;20060;-69
2022/09/09 08:04:56;;;;;;;0.40;0.40;;;;;;;15.75;35.07;100768.00;4973255;28;20121;-69
2022/09/09 08:07:23;;;;;;;;;;;;;;;16.15;34.25;100770.78;4974987;28;20117;-70
2022/09/09 08:09:55;;;;;;;0.20;0.20;;;;;;;15.22;35.58;100766.66;4969461;28;19958;-70
2022/09/09 08:12:25;;;;;;;0.35;0.30;;;;;;;14.38;37.16;100770.72;4960052;28;20053;-70
2022/09/09 08:14:53;;;;;;;0.20;0.20;;;;;;;13.81;38.57;100778.13;4974353;28;20101;-70
2022/09/09 08:17:20;;;;;;;0.20;0.20;;;;;;;13.50;38.72;100765.13;4956950;28;20047;-69
2022/09/09 08:19:48;;;;;;;0.28;0.28;;;;;;;13.13;39.02;100779.81;4968843;28;20532;-71
2022/09/09 08:22:20;;;;;;;0.20;0.20;;;;;;;12.82;39.59;100776.94;4972984;28;20057;-69
2022/09/09 08:24:47;;;;;;;0.20;0.20;;;;;;;12.81;39.39;100773.38;4984984;28;20053;-71
2022/09/09 08:27:13;;;;;;;0.30;0.30;;;;;;;13.70;38.40;100780.03;4999541;28;20104;-70
2022/09/09 08:29:39;;;;;;;0.40;0.40;;;;;;;15.19;35.38;100771.91;4981475;28;20055;-70
2022/09/09 08:32:06;;;;;;;0.40;0.40;;;;;;;16.22;33.13;100762.97;4962750;28;20054;-70
2022/09/09 08:34:33;;;;;;;0.40;0.40;;;;;;;17.31;31.42;100783.91;5001999;28;20068;-72
2022/09/09 08:37:04;;;;;;;0.50;0.50;;;;;;;18.12;30.58;100780.28;4975820;28;20072;-70
2022/09/09 08:39:36;;;;;;;0.30;0.30;;;;;;;18.83;29.47;100772.94;4971419;28;20410;-70
2022/09/09 08:42:27;;;;;;;0.30;0.30;;;;;;;17.72;31.06;100780.59;4995893;28;20056;-69
2022/09/09 08:45:11;;;;;;;0.40;0.40;;;;;;;17.13;32.26;100778.06;4974069;28;20066;-70
2022/09/09 08:47:46;;;;;;;0.30;0.30;;;;;;;16.46;33.37;100776.00;5004623;28;20054;-70
2022/09/09 08:50:24;;;;;;;0.30;0.30;;;;;;;15.44;35.21;100780.03;4992231;28;20038;-70
2022/09/09 08:53:01;;;;;;;0.20;0.20;;;;;;;14.82;36.34;100777.53;4980418;28;20049;-71
2022/09/09 08:55:37;;;;;;;0.30;0.30;;;;;;;14.29;37.40;100775.94;4985065;28;20382;-70
2022/09/09 08:58:11;;;;;;;0.30;0.30;;;;;;;13.94;38.21;100791.34;4991028;28;20050;-70
2022/09/09 09:00:59;;;;;;;0.30;0.30;;;;;;;13.61;38.70;100785.25;4993555;28;20081;-68
2022/09/09 09:03:34;;;;;;;0.40;0.40;;;;;;;13.72;38.70;100791.59;4990778;28;20417;-69
2022/09/09 09:06:06;;;;;;;0.60;0.60;;;;;;;14.74;37.18;100787.19;4975580;28;20045;-69
2022/09/09 09:08:43;;;;;;;0.50;0.50;;;;;;;16.54;33.84;100786.41;5008601;28;20513;-70
2022/09/09 09:11:10;;;;;;;0.60;0.60;;;;;;;18.09;31.15;100788.34;5009154;28;20042;-70
2022/09/09 09:13:43;;;;;;;0.60;0.60;;;;;;;19.40;29.01;100778.16;4994094;28;20053;-70
2022/09/09 09:16:22;;;;;;;0.60;0.60;;;;;;;20.73;26.99;100791.03;4980986;28;20071;-70
2022/09/09 09:18:51;;;;;;;0.70;0.70;;;;;;;21.55;26.05;100781.50;5010327;28;20049;-70
2022/09/09 09:21:25;;;;;;;0.73;0.73;;;;;;;22.13;25.38;100780.53;4988494;28;20052;-71
2022/09/09 09:23:57;;;;;;;0.30;0.30;;;;;;;20.53;26.86;100784.91;5002379;28;20054;-72
2022/09/09 09:26:29;;;;;;;0.30;0.30;;;;;;;18.17;29.60;100789.59;4981398;28;20077;-71
2022/09/09 09:28:59;;;;;;;0.30;0.30;;;;;;;16.45;32.87;100793.69;4991710;28;20525;-70
2022/09/09 09:31:26;;;;;;;0.30;0.30;;;;;;;15.53;34.11;100791.31;4985269;28;20046;-70
2022/09/09 09:33:54;;;;;;;0.25;0.25;;;;;;;15.00;35.05;100789.06;4996407;28;20852;-70
2022/09/09 09:36:34;;;;;;;0.30;0.30;;;;;;;14.50;35.82;100792.41;4983089;28;20582;-70
2022/09/09 09:39:05;;;;;;;0.35;0.35;;;;;;;14.21;36.50;100800.44;4973540;28;20053;-70
2022/09/09 09:41:35;;;;;;;0.40;0.40;;;;;;;14.49;36.46;100788.03;4990978;28;20076;-70
2022/09/09 09:44:07;;;;;;;1.00;1.00;;;;;;;14.94;35.99;100782.75;4991448;28;20058;-70
2022/09/09 09:46:34;;;;;;;0.90;0.90;;;;;;;17.68;32.27;100790.63;4963186;28;20496;-70
2022/09/09 09:49:10;;;;;;;0.30;0.30;;;;;;;18.78;29.94;100771.09;4979030;28;20080;-70
2022/09/09 09:51:37;;;;;;;0.30;0.30;;;;;;;17.53;31.39;100779.78;4994824;28;20045;-70
2022/09/09 09:54:18;;;;;;;0.30;0.30;;;;;;;16.55;33.14;100788.09;4992634;28;20042;-70
2022/09/09 09:56:49;;;;;;;0.30;0.30;;;;;;;15.92;34.35;100788.88;4991358;28;20121;-70
2022/09/09 09:59:33;;;;;;;0.40;0.40;;;;;;;15.50;34.91;100788.28;5004604;28;20056;-70
2022/09/09 10:02:16;;;;;;;0.30;0.30;;;;;;;15.31;35.34;100794.44;4992945;28;20137;-70
2022/09/09 10:04:45;;;;;;;0.80;0.80;;;;;;;15.08;35.73;100782.97;4977923;28;20520;-70
2022/09/09 10:07:13;;;;;;;1.20;1.10;;;;;;;17.10;32.69;100786.94;4997326;28;20149;-70
2022/09/09 10:09:40;;;;;;;0.65;0.40;;;;;;;18.78;29.63;100781.31;4997777;28;20053;-70
2022/09/09 10:12:21;;;;;;;1.13;1.13;;;;;;;19.31;28.82;100787.53;4993196;28;20521;-70
2022/09/09 10:14:59;;;;;;;1.10;1.10;;;;;;;21.03;26.18;100782.22;4996366;28;20041;-71
2022/09/09 10:17:35;;;;;;;1.10;1.10;;;;;;;22.61;24.32;100787.00;5014588;28;20050;-71
2022/09/09 10:20:20;;;;;;;0.80;0.80;;;;;;;23.15;23.48;100789.22;5021815;28;20103;-71
2022/09/09 10:22:51;;;;;;;1.10;1.10;;;;;;;21.84;24.74;100787.59;4986981;28;20131;-71
2022/09/09 10:25:37;;;;;;;1.20;1.20;;;;;;;22.37;24.60;100785.56;5007672;28;20196;-70
2022/09/09 10:28:27;;;;;;;1.10;1.10;;;;;;;23.52;22.82;100785.88;5002989;28;20504;-71
2022/09/09 10:31:08;;;;;;;0.40;0.40;;;;;;;23.75;22.53;100791.16;4990148;28;20054;-71
2022/09/09 10:33:44;;;;;;;1.20;1.20;;;;;;;24.17;22.26;100788.31;4990658;28;20054;-71
2022/09/09 10:36:15;;;;;;;0.35;0.35;;;;;;;23.61;22.72;100792.22;5007756;28;20053;-70
2022/09/09 10:38:45;;;;;;;0.30;0.30;;;;;;;21.09;24.96;100790.09;4991844;28;20053;-71
2022/09/09 10:41:19;;;;;;;0.30;0.30;;;;;;;19.14;27.52;100794.53;4991089;28;20046;-70
2022/09/09 10:44:13;;;;;;;0.30;0.30;;;;;;;17.89;29.52;100801.34;5022240;28;20672;-70
2022/09/09 10:46:54;;;;;;;1.10;1.10;;;;;;;17.21;30.99;100798.69;5013444;28;20559;-70
2022/09/09 10:49:33;;;;;;;0.30;0.30;;;;;;;17.45;30.72;100795.09;5007720;28;20050;-70
2022/09/09 10:52:06;;;;;;;0.30;0.30;;;;;;;16.77;32.19;100799.72;4993947;28;20081;-70
2022/09/09 10:54:45;;;;;;;0.30;0.30;;;;;;;16.16;33.62;100789.81;5001526;28;20166;-70
2022/09/09 10:57:17;;;;;;;1.20;1.20;;;;;;;16.50;33.14;100790.88;5002393;28;20046;-70
2022/09/09 10:59:51;;;;;;;0.90;0.90;;;;;;;19.59;28.95;100787.44;4989699;28;20434;-70
2022/09/09 11:02:25;;;;;;;0.40;0.40;;;;;;;21.25;26.48;100790.44;5009279;28;20610;-70
2022/09/09 11:04:55;;;;;;;0.40;0.40;;;;;;;20.60;26.75;100784.44;4989529;28;20041;-70
2022/09/09 11:07:28;;;;;;;0.40;0.40;;;;;;;20.03;27.41;100791.44;4996428;28;20060;-70
2022/09/09 11:10:02;;;;;;;1.05;1.05;;;;;;;21.26;25.72;100796.84;4993976;28;20052;-73
2022/09/09 11:12:34;;;;;;;1.30;1.20;;;;;;;23.68;22.62;100793.66;5006942;28;20058;-71
2022/09/09 11:15:05;;;;;;;0.40;0.40;;;;;;;23.99;22.14;100789.63;4993053;28;20116;-71
2022/09/09 11:17:40;;;;;;;0.32;0.32;;;;;;;21.54;24.28;100794.59;5007791;28;20547;-71
2022/09/09 11:20:12;;;;;;;0.30;0.30;;;;;;;19.40;27.00;100792.03;5013118;28;20074;-71
2022/09/09 11:22:47;;;;;;;0.30;0.30;;;;;;;17.72;29.95;100783.34;5002434;28;20157;-71
2022/09/09 11:25:17;;;;;;;0.30;0.30;;;;;;;16.66;32.24;100793.47;5010366;28;20061;-71
2022/09/09 11:28:01;;;;;;;0.40;0.30;;;;;;;15.97;33.67;100794.34;5014691;28;20046;-72
2022/09/09 11:30:37;;;;;;;0.30;0.30;;;;;;;15.52;34.77;100794.34;5013905;28;20057;-71
2022/09/09 11:33:37;;;;;;;0.30;0.30;;;;;;;15.17;35.10;100791.47;5008301;28;20104;-70
2022/09/09 11:36:37;;;;;;;0.63;0.40;;;;;;;15.02;35.18;100797.88;5003882;28;20054;-71
2022/09/09 11:39:18;;;;;;;0.47;0.40;;;;;;;15.32;34.33;100796.09;4962595;28;20061;-71
2022/09/09 11:41:44;;;;;;;0.40;0.40;;;;;;;16.01;33.13;100795.44;5003117;28;20046;-72
2022/09/09 11:44:17;;;;;;;1.30;1.20;;;;;;;18.10;29.92;100784.47;4997399;28;20054;-71
2022/09/09 11:46:46;;;;;;;1.40;1.30;;;;;;;20.98;25.62;100791.50;5006278;28;20485;-71
2022/09/09 11:49:27;;;;;;;1.30;1.20;;;;;;;23.06;22.76;100789.25;5000697;28;20045;-71
2022/09/09 11:51:54;;;;;;;1.40;1.30;;;;;;;24.25;20.81;100777.41;5008590;28;20046;-71